createdAt,value
2024-02-13T00:00:51.590Z,0.80
2024-02-13T00:03:54.181Z,0.90
2024-02-13T00:06:57.444Z,0.40
2024-02-13T00:09:59.841Z,0.80
2024-02-13T00:13:02.099Z,1.20
2024-02-13T00:16:04.660Z,0.70
2024-02-13T00:19:07.575Z,1.00
2024-02-13T00:22:13.174Z,1.10
2024-02-13T00:25:16.679Z,0.65
2024-02-13T00:28:20.531Z,0.65
2024-02-13T00:31:22.782Z,1.00
2024-02-13T00:34:45.988Z,1.13
2024-02-13T00:37:48.300Z,0.60
2024-02-13T00:40:50.538Z,1.00
2024-02-13T00:43:52.788Z,0.77
2024-02-13T00:46:57.387Z,0.85
2024-02-13T00:49:59.593Z,1.10
2024-02-13T00:53:02.105Z,1.48
2024-02-13T00:56:07.928Z,1.40
2024-02-13T00:59:10.574Z,1.15
2024-02-13T01:02:12.940Z,0.88
2024-02-13T01:05:15.161Z,1.07
2024-02-13T01:08:24.979Z,0.98
2024-02-13T01:11:27.628Z,0.77
2024-02-13T01:14:29.968Z,1.00
2024-02-13T01:17:32.323Z,1.25
2024-02-13T01:20:34.648Z,1.23
2024-02-13T01:23:37.016Z,1.02
2024-02-13T01:26:39.302Z,1.20
2024-02-13T01:29:41.719Z,1.30
2024-02-13T01:32:44.156Z,1.20
2024-02-13T01:35:46.677Z,1.17
2024-02-13T01:38:49.945Z,1.20
2024-02-13T01:41:52.607Z,1.33
2024-02-13T01:44:55.168Z,1.27
2024-02-13T01:47:58.548Z,1.33
2024-02-13T01:51:02.080Z,1.33
2024-02-13T01:54:06.450Z,1.73
2024-02-13T01:57:08.812Z,1.00
2024-02-13T02:00:14.930Z,1.30
2024-02-13T02:03:18.956Z,1.10
2024-02-13T02:06:21.679Z,0.80
2024-02-13T02:09:24.355Z,1.33
2024-02-13T02:12:27.156Z,1.58
2024-02-13T02:15:29.560Z,1.40
2024-02-13T02:18:32.095Z,1.33
2024-02-13T02:21:34.365Z,0.83
2024-02-13T02:24:36.693Z,1.58
2024-02-13T02:27:43.859Z,1.48
2024-02-13T02:30:46.813Z,2.08
2024-02-13T02:33:49.134Z,1.02
2024-02-13T02:36:52.075Z,1.40
2024-02-13T02:39:54.294Z,1.42
2024-02-13T02:42:56.874Z,0.93
2024-02-13T02:46:00.155Z,1.45
2024-02-13T02:49:02.491Z,1.40
2024-02-13T02:52:14.424Z,1.20
2024-02-13T02:55:18.285Z,1.25
2024-02-13T02:58:20.724Z,1.58
2024-02-13T03:01:23.589Z,1.70
2024-02-13T03:04:29.248Z,2.00
2024-02-13T03:07:33.088Z,1.13
2024-02-13T03:10:36.463Z,1.95
2024-02-13T03:13:38.742Z,1.50
2024-02-13T03:16:42.200Z,1.15
2024-02-13T03:19:44.520Z,0.98
2024-02-13T03:22:46.793Z,1.63
2024-02-13T03:25:49.017Z,1.40
2024-02-13T03:29:11.261Z,1.20
2024-02-13T03:32:13.553Z,1.58
2024-02-13T03:35:16.836Z,1.37
2024-02-13T03:38:19.148Z,1.40
2024-02-13T03:41:21.823Z,1.35
2024-02-13T03:44:26.895Z,1.38
2024-02-13T03:47:29.375Z,2.03
2024-02-13T03:50:31.702Z,1.90
2024-02-13T03:53:35.503Z,1.90
2024-02-13T03:56:38.914Z,1.63
2024-02-13T03:59:41.281Z,1.50
2024-02-13T04:02:44.666Z,1.60
2024-02-13T04:05:47.109Z,1.30
2024-02-13T04:08:49.499Z,2.03
2024-02-13T04:11:52.946Z,1.73
2024-02-13T04:14:55.266Z,1.70
2024-02-13T04:17:58.274Z,1.73
2024-02-13T04:21:00.681Z,1.53
2024-02-13T04:24:04.099Z,1.07
2024-02-13T04:27:06.730Z,1.88
2024-02-13T04:30:13.846Z,1.63
2024-02-13T04:33:16.281Z,1.77
2024-02-13T04:36:19.203Z,1.73
2024-02-13T04:39:21.429Z,2.03
2024-02-13T04:42:33.211Z,2.08
2024-02-13T04:45:35.810Z,1.80
2024-02-13T04:48:38.774Z,1.58
2024-02-13T04:51:41.328Z,1.70
2024-02-13T04:54:43.522Z,1.53
2024-02-13T04:57:45.819Z,1.75
2024-02-13T05:01:03.165Z,1.75
2024-02-13T05:04:14.843Z,1.30
2024-02-13T05:07:24.730Z,1.33
2024-02-13T05:10:27.082Z,1.47
2024-02-13T05:13:40.763Z,2.00
2024-02-13T05:16:44.779Z,2.20
2024-02-13T05:19:47.500Z,1.98
2024-02-13T05:22:49.772Z,1.73
2024-02-13T05:25:53.011Z,2.33
2024-02-13T05:28:57.681Z,1.95
2024-02-13T05:32:00.812Z,1.17
2024-02-13T05:35:03.055Z,2.03
2024-02-13T05:38:08.074Z,1.67
2024-02-13T05:41:10.692Z,2.20
2024-02-13T05:44:13.579Z,1.73
2024-02-13T05:47:15.852Z,2.40
2024-02-13T05:50:20.634Z,2.33
2024-02-13T05:53:23.371Z,1.67
2024-02-13T05:56:28.155Z,2.10
2024-02-13T05:59:33.134Z,1.90
2024-02-13T06:02:37.377Z,1.73
2024-02-13T06:05:39.769Z,1.73
2024-02-13T06:08:42.123Z,1.83
2024-02-13T06:11:46.309Z,1.90
2024-02-13T06:14:49.301Z,1.92
2024-02-13T06:17:55.916Z,1.85
2024-02-13T06:20:58.374Z,2.50
2024-02-13T06:24:00.823Z,2.00
2024-02-13T06:27:03.636Z,1.87
2024-02-13T06:30:06.289Z,1.85
2024-02-13T06:33:11.892Z,2.75
2024-02-13T06:36:17.624Z,2.05
2024-02-13T06:39:26.944Z,2.50
2024-02-13T06:42:29.777Z,3.63
2024-02-13T06:45:32.551Z,2.80
2024-02-13T06:48:35.401Z,3.53
2024-02-13T06:51:37.996Z,2.55
2024-02-13T06:54:42.510Z,1.87
2024-02-13T06:57:45.856Z,2.47
2024-02-13T07:00:49.008Z,2.30
2024-02-13T07:03:52.133Z,2.85
2024-02-13T07:07:08.980Z,2.30
2024-02-13T07:10:21.980Z,1.87
2024-02-13T07:13:34.424Z,1.67
2024-02-13T07:16:40.936Z,2.30
2024-02-13T07:19:44.251Z,2.60
2024-02-13T07:22:47.389Z,3.22
2024-02-13T07:25:50.182Z,1.90
2024-02-13T07:28:53.197Z,2.33
2024-02-13T07:31:55.797Z,2.38
2024-02-13T07:35:04.321Z,1.55
2024-02-13T07:38:11.454Z,2.20
2024-02-13T07:41:14.207Z,1.25
2024-02-13T07:44:16.485Z,2.13
2024-02-13T07:47:22.951Z,1.98
2024-02-13T07:50:27.513Z,2.08
2024-02-13T07:53:31.279Z,2.22
2024-02-13T07:56:34.177Z,2.50
2024-02-13T07:59:37.494Z,1.33
2024-02-13T08:02:41.380Z,2.28
2024-02-13T08:05:46.115Z,3.05
2024-02-13T08:08:48.731Z,3.15
2024-02-13T08:11:52.877Z,2.20
2024-02-13T08:14:55.478Z,1.80
2024-02-13T08:17:57.970Z,2.10
2024-02-13T08:21:00.663Z,1.85
2024-02-13T08:24:03.059Z,1.75
2024-02-13T08:27:10.258Z,1.80
2024-02-13T08:30:21.496Z,1.80
2024-02-13T08:33:25.570Z,1.92
2024-02-13T08:36:30.292Z,3.47
2024-02-13T08:39:33.112Z,1.50
2024-02-13T08:42:36.053Z,1.92
2024-02-13T08:45:41.173Z,1.90
2024-02-13T08:48:43.631Z,1.85
2024-02-13T08:51:46.244Z,2.25
2024-02-13T08:54:51.241Z,1.42
2024-02-13T08:57:54.873Z,1.63
2024-02-13T09:00:57.241Z,1.20
2024-02-13T09:04:03.332Z,1.30
2024-02-13T09:07:06.277Z,0.98
2024-02-13T09:10:13.628Z,1.10
2024-02-13T09:13:17.559Z,1.08
2024-02-13T09:16:20.791Z,0.80
2024-02-13T09:19:23.672Z,1.05
2024-02-13T09:22:26.254Z,1.40
2024-02-13T09:25:29.111Z,1.30
2024-02-13T09:28:32.396Z,1.17
2024-02-13T09:31:34.718Z,0.73
2024-02-13T09:34:39.092Z,1.08
2024-02-13T09:37:44.971Z,1.40
2024-02-13T09:40:50.076Z,1.35
2024-02-13T09:43:52.808Z,0.85
2024-02-13T09:46:56.786Z,1.03
2024-02-13T09:50:00.754Z,1.30
2024-02-13T09:53:10.634Z,1.02
2024-02-13T09:56:15.521Z,1.73
2024-02-13T09:59:20.865Z,1.20
2024-02-13T10:02:25.325Z,1.10
2024-02-13T10:05:27.814Z,1.00
2024-02-13T10:08:32.686Z,1.00
2024-02-13T10:11:38.049Z,0.93
2024-02-13T10:14:40.598Z,1.80
2024-02-13T10:17:45.251Z,1.20
2024-02-13T10:20:47.848Z,1.23
2024-02-13T10:23:50.356Z,1.35
2024-02-13T10:26:52.866Z,1.65
2024-02-13T10:29:55.217Z,1.25
2024-02-13T10:33:02.252Z,1.70
2024-02-13T10:36:04.855Z,1.35
2024-02-13T10:39:10.849Z,1.15
2024-02-13T10:42:21.769Z,1.25
2024-02-13T10:45:30.212Z,1.52
2024-02-13T10:48:39.508Z,1.50
2024-02-13T10:51:50.054Z,1.38
2024-02-13T10:54:53.119Z,1.23
2024-02-13T10:57:57.630Z,1.58
2024-02-13T11:01:01.780Z,1.30
2024-02-13T11:04:05.507Z,1.33
2024-02-13T11:07:12.497Z,1.33
2024-02-13T11:10:17.622Z,0.65
2024-02-13T11:13:22.914Z,1.05
2024-02-13T11:16:27.684Z,2.08
2024-02-13T11:19:55.738Z,1.10
2024-02-13T11:23:01.718Z,1.42
2024-02-13T11:26:04.357Z,1.20
2024-02-13T11:29:10.853Z,1.80
2024-02-13T11:32:24.536Z,1.38
2024-02-13T11:35:31.805Z,1.47
2024-02-13T11:38:34.462Z,0.88
2024-02-13T11:41:37.280Z,1.50
2024-02-13T11:44:42.656Z,1.80
2024-02-13T11:47:45.448Z,1.25
2024-02-13T11:50:50.441Z,1.00
2024-02-13T11:53:54.080Z,1.20
2024-02-13T11:56:57.358Z,1.40
2024-02-13T12:00:01.710Z,0.85
2024-02-13T12:03:12.181Z,1.45
2024-02-13T12:06:14.588Z,1.30
2024-02-13T12:09:17.421Z,1.50
2024-02-13T12:12:20.130Z,1.48
2024-02-13T12:15:24.244Z,1.52
2024-02-13T12:18:31.383Z,1.05
2024-02-13T12:21:40.294Z,1.27
2024-02-13T12:24:48.676Z,0.77
2024-02-13T12:27:52.202Z,0.93
2024-02-13T12:31:00.788Z,1.00
2024-02-13T12:34:06.266Z,1.30
2024-02-13T12:37:11.262Z,0.93
2024-02-13T12:40:16.179Z,1.67
2024-02-13T12:43:23.586Z,0.90
2024-02-13T12:46:29.525Z,1.45
2024-02-13T12:49:34.323Z,1.73
2024-02-13T12:52:37.635Z,2.17
2024-02-13T12:55:40.062Z,1.20
2024-02-13T12:58:43.753Z,1.52
2024-02-13T13:01:46.266Z,1.60
2024-02-13T13:04:53.440Z,1.30
2024-02-13T13:08:03.904Z,1.30
2024-02-13T13:11:10.153Z,1.08
2024-02-13T13:14:13.656Z,1.20
2024-02-13T13:17:22.878Z,0.88
2024-02-13T13:20:25.738Z,1.13
2024-02-13T13:23:31.642Z,1.00
2024-02-13T13:26:34.842Z,1.30
2024-02-13T13:29:40.025Z,1.30
2024-02-13T13:32:43.261Z,0.95
2024-02-13T13:35:47.750Z,1.20
2024-02-13T13:38:50.393Z,1.03
2024-02-13T13:41:52.949Z,0.85
2024-02-13T13:44:55.264Z,0.95
2024-02-13T13:47:58.209Z,1.17
2024-02-13T13:51:02.756Z,1.20
2024-02-13T13:54:07.360Z,0.77
2024-02-13T13:57:09.901Z,1.05
2024-02-13T14:00:14.640Z,0.90
2024-02-13T14:03:18.992Z,0.80
2024-02-13T14:06:21.436Z,0.93
2024-02-13T14:09:23.809Z,0.77
2024-02-13T14:12:26.267Z,1.00
2024-02-13T14:15:30.303Z,1.02
2024-02-13T14:18:32.757Z,1.17
2024-02-13T14:21:35.371Z,1.08
2024-02-13T14:24:37.552Z,0.90
2024-02-13T14:27:39.813Z,0.98
2024-02-13T14:30:45.190Z,0.77
2024-02-13T14:33:50.038Z,0.90
2024-02-13T14:36:52.499Z,0.82
2024-02-13T14:39:54.877Z,1.27
2024-02-13T14:42:57.611Z,1.27
2024-02-13T14:46:00.609Z,0.82
2024-02-13T14:49:03.152Z,0.90
2024-02-13T14:52:06.358Z,0.63
2024-02-13T14:55:13.332Z,0.77
2024-02-13T14:58:22.883Z,0.57
2024-02-13T15:01:33.200Z,0.50
2024-02-13T15:04:36.146Z,0.40
2024-02-13T15:07:38.488Z,0.70
2024-02-13T15:10:40.872Z,0.80
2024-02-13T15:13:43.689Z,0.63
2024-02-13T15:16:49.553Z,0.60
2024-02-13T15:19:53.362Z,0.52
2024-02-13T15:22:56.788Z,0.75
2024-02-13T15:25:59.164Z,1.50
2024-02-13T15:29:01.729Z,0.60
2024-02-13T15:32:05.639Z,0.30
2024-02-13T15:35:11.082Z,0.95
2024-02-13T15:38:32.390Z,0.88
2024-02-13T15:41:53.211Z,0.40
2024-02-13T15:45:14.406Z,0.52
2024-02-13T15:48:28.391Z,0.30
2024-02-13T15:51:30.746Z,0.40
2024-02-13T15:54:33.601Z,0.35
2024-02-13T15:57:42.975Z,0.50
2024-02-13T16:00:46.704Z,0.50
2024-02-13T16:03:48.997Z,0.73
2024-02-13T16:06:55.458Z,0.22
2024-02-13T16:09:57.889Z,0.80
2024-02-13T16:13:00.084Z,0.50
2024-02-13T16:16:03.107Z,0.40
2024-02-13T16:19:05.645Z,0.60
2024-02-13T16:22:08.110Z,0.40
2024-02-13T16:25:13.646Z,0.55
2024-02-13T16:28:15.890Z,0.50
2024-02-13T16:31:21.845Z,0.63
2024-02-13T16:34:24.572Z,0.60
2024-02-13T16:37:31.097Z,0.68
2024-02-13T16:40:33.323Z,0.60
2024-02-13T16:43:35.834Z,0.70
2024-02-13T16:46:38.234Z,0.52
2024-02-13T16:49:40.771Z,0.82
2024-02-13T16:52:43.557Z,0.68
2024-02-13T16:55:45.829Z,0.68
2024-02-13T16:58:48.061Z,0.70
2024-02-13T17:01:50.391Z,0.52
2024-02-13T17:04:53.422Z,0.60
2024-02-13T17:07:59.171Z,1.00
2024-02-13T17:11:02.480Z,0.93
2024-02-13T17:14:07.889Z,0.90
2024-02-13T17:17:10.272Z,1.02
2024-02-13T17:20:13.540Z,1.10
2024-02-13T17:23:16.500Z,0.63
2024-02-13T17:26:21.895Z,0.82
2024-02-13T17:29:24.958Z,1.00
2024-02-13T17:32:27.312Z,0.80
2024-02-13T17:35:29.850Z,1.50
2024-02-13T17:38:35.897Z,1.15
2024-02-13T17:41:39.861Z,1.15
2024-02-13T17:44:42.619Z,0.97
2024-02-13T17:47:45.037Z,1.38
2024-02-13T17:50:48.009Z,1.40
2024-02-13T17:53:50.354Z,1.48
2024-02-13T17:56:52.641Z,0.97
2024-02-13T17:59:54.918Z,1.20
2024-02-13T18:02:57.326Z,0.68
2024-02-13T18:06:02.902Z,1.10
2024-02-13T18:09:09.070Z,0.90
2024-02-13T18:12:11.488Z,1.13
2024-02-13T18:15:15.032Z,0.90
2024-02-13T18:18:18.528Z,1.00
2024-02-13T18:21:21.024Z,0.88
2024-02-13T18:24:23.704Z,0.88
2024-02-13T18:27:25.940Z,0.80
2024-02-13T18:30:28.267Z,1.30
2024-02-13T18:33:30.915Z,1.48
2024-02-13T18:36:33.283Z,1.00
2024-02-13T18:39:38.618Z,0.80
2024-02-13T18:42:42.546Z,1.20
2024-02-13T18:45:46.183Z,1.53
2024-02-13T18:48:48.663Z,0.80
2024-02-13T18:51:51.017Z,1.60
2024-02-13T18:54:53.381Z,1.63
2024-02-13T18:57:55.641Z,1.23
2024-02-13T19:00:59.496Z,1.37
2024-02-13T19:04:01.756Z,1.55
2024-02-13T19:07:04.190Z,1.13
2024-02-13T19:10:07.804Z,1.45
2024-02-13T19:13:10.277Z,1.60
2024-02-13T19:16:12.669Z,1.67
2024-02-13T19:19:14.995Z,0.77
2024-02-13T19:22:17.285Z,1.40
2024-02-13T19:25:19.966Z,1.38
2024-02-13T19:28:23.188Z,1.65
2024-02-13T19:31:26.833Z,1.47
2024-02-13T19:34:29.344Z,0.95
2024-02-13T19:37:31.980Z,1.10
2024-02-13T19:40:34.845Z,1.42
2024-02-13T19:43:38.627Z,1.43
2024-02-13T19:46:41.093Z,1.67
2024-02-13T19:50:04.027Z,1.13
2024-02-13T19:53:26.377Z,1.00
2024-02-13T19:56:50.234Z,1.25
2024-02-13T20:00:12.994Z,1.57
2024-02-13T20:03:35.240Z,2.10
2024-02-13T20:06:57.679Z,2.63
2024-02-13T20:10:00.291Z,2.33
2024-02-13T20:13:02.591Z,2.70
2024-02-13T20:16:05.297Z,2.40
2024-02-13T20:19:07.681Z,2.03
2024-02-13T20:22:09.988Z,2.28
2024-02-13T20:25:14.526Z,1.80
2024-02-13T20:28:16.858Z,2.13
2024-02-13T20:31:19.103Z,1.57
2024-02-13T20:34:22.598Z,1.57
2024-02-13T20:37:25.921Z,2.25
2024-02-13T20:40:28.148Z,1.80
2024-02-13T20:43:44.272Z,1.88
2024-02-13T20:46:46.968Z,1.97
2024-02-13T20:49:49.310Z,1.77
2024-02-13T20:52:51.613Z,1.95
2024-02-13T20:55:55.110Z,2.08
2024-02-13T20:58:58.227Z,2.40
2024-02-13T21:02:02.632Z,2.23
2024-02-13T21:05:05.221Z,2.40
2024-02-13T21:08:09.024Z,1.73
2024-02-13T21:11:12.653Z,2.13
2024-02-13T21:14:15.736Z,1.42
2024-02-13T21:17:18.438Z,1.30
2024-02-13T21:20:28.302Z,1.90
2024-02-13T21:23:49.259Z,1.15
2024-02-13T21:26:52.040Z,1.73
2024-02-13T21:29:54.303Z,2.33
2024-02-13T21:32:57.092Z,2.03
2024-02-13T21:36:02.072Z,1.43
2024-02-13T21:39:09.237Z,1.40
2024-02-13T21:42:11.791Z,1.20
2024-02-13T21:45:14.213Z,2.15
2024-02-13T21:48:17.077Z,2.20
2024-02-13T21:51:19.453Z,1.43
2024-02-13T21:54:21.834Z,1.40
2024-02-13T21:57:25.033Z,2.15
2024-02-13T22:00:27.951Z,1.70
2024-02-13T22:03:30.300Z,1.33
2024-02-13T22:06:34.551Z,1.57
2024-02-13T22:09:36.767Z,0.93
2024-02-13T22:12:42.247Z,1.08
2024-02-13T22:15:46.634Z,1.58
2024-02-13T22:18:49.033Z,1.30
2024-02-13T22:21:51.502Z,1.30
2024-02-13T22:24:53.757Z,1.05
2024-02-13T22:27:56.192Z,1.48
2024-02-13T22:30:58.488Z,1.85
2024-02-13T22:34:08.642Z,1.03
2024-02-13T22:37:11.181Z,1.87
2024-02-13T22:40:13.464Z,1.23
2024-02-13T22:43:15.727Z,0.77
2024-02-13T22:46:18.321Z,1.58
2024-02-13T22:49:20.738Z,1.53
2024-02-13T22:52:23.604Z,2.40
2024-02-13T22:55:27.464Z,1.48
2024-02-13T22:58:29.910Z,1.60
2024-02-13T23:01:35.268Z,1.27
2024-02-13T23:04:38.324Z,1.73
2024-02-13T23:07:40.532Z,1.10
2024-02-13T23:10:43.360Z,1.42
2024-02-13T23:13:49.589Z,1.77
2024-02-13T23:16:53.753Z,1.60
2024-02-13T23:19:56.033Z,1.27
2024-02-13T23:22:58.339Z,0.80
2024-02-13T23:26:00.837Z,0.90
2024-02-13T23:29:03.179Z,0.80
2024-02-13T23:32:05.603Z,0.80
2024-02-13T23:35:08.182Z,1.10
2024-02-13T23:38:10.433Z,1.50
2024-02-13T23:41:12.902Z,1.02
2024-02-13T23:44:15.872Z,1.70
2024-02-13T23:47:18.251Z,1.65
2024-02-13T23:50:20.445Z,0.77
2024-02-13T23:53:23.100Z,1.27
2024-02-13T23:56:26.453Z,1.00
2024-02-13T23:59:28.836Z,1.38
